Time;durP1;ratioP1;P1;durP2;ratioP2;P2;SDS_P1;SDS_P2;PMS_P1;PMS_P2;Temp;Humidity;BMP_temperature;BMP_pressure;BME280_temperature;BME280_humidity;BME280_pressure;Samples;Min_cycle;Max_cycle;Signal;HPM_P1;HPM_P2
2023/07/11 00:00:04;;;;;;;7.70;3.80;;;21.10;99.90;;;;;;5073598;28;20201;-64
2023/07/11 00:02:32;;;;;;;5.88;3.83;;;21.10;99.90;;;;;;5068689;28;20684;-64
2023/07/11 00:05:00;;;;;;;6.95;4.00;;;21.10;99.90;;;;;;5053482;28;20201;-64
2023/07/11 00:07:28;;;;;;;3.55;3.25;;;21.10;99.90;;;;;;5061916;28;20224;-64
2023/07/11 00:09:56;;;;;;;3.75;3.42;;;21.10;99.90;;;;;;5061583;28;20204;-64
2023/07/11 00:12:28;;;;;;;6.53;3.65;;;21.00;99.90;;;;;;5069424;28;20250;-64
2023/07/11 00:14:58;;;;;;;5.97;4.03;;;21.00;99.90;;;;;;5057432;28;20232;-63
2023/07/11 00:17:26;;;;;;;3.80;3.50;;;21.00;99.90;;;;;;5066558;28;20193;-64
2023/07/11 00:19:55;;;;;;;6.40;4.07;;;21.00;99.90;;;;;;5065171;28;20208;-64
2023/07/11 00:22:24;;;;;;;5.85;4.18;;;20.90;99.90;;;;;;5073188;28;20256;-65
2023/07/11 00:24:52;;;;;;;4.28;3.63;;;20.90;99.90;;;;;;5056384;28;20229;-64
2023/07/11 00:27:20;;;;;;;4.53;3.95;;;20.80;99.90;;;;;;5066114;28;20197;-64
2023/07/11 00:29:48;;;;;;;4.30;3.88;;;20.80;99.90;;;;;;5064276;28;20291;-64
2023/07/11 00:32:18;;;;;;;4.05;3.70;;;20.70;99.90;;;;;;5058338;28;20225;-65
2023/07/11 00:34:46;;;;;;;5.53;4.45;;;20.70;99.90;;;;;;5071623;28;20215;-64
2023/07/11 00:37:16;;;;;;;7.47;4.32;;;20.60;99.90;;;;;;5066850;28;20301;-65
2023/07/11 00:39:44;;;;;;;4.65;4.18;;;20.60;99.90;;;;;;5062979;28;20196;-65
2023/07/11 00:42:11;;;;;;;4.18;3.80;;;20.50;99.90;;;;;;5072970;28;20317;-65
2023/07/11 00:44:56;;;;;;;9.65;4.07;;;20.50;99.90;;;;;;5055959;28;20217;-64
2023/07/11 00:47:26;;;;;;;5.15;3.60;;;20.50;99.90;;;;;;5065193;28;20700;-64
2023/07/11 00:49:56;;;;;;;6.53;4.68;;;20.50;99.90;;;;;;5064634;28;20431;-64
2023/07/11 00:52:26;;;;;;;7.25;4.40;;;20.50;99.90;;;;;;5072735;28;20224;-64
2023/07/11 00:54:57;;;;;;;5.28;4.03;;;20.50;99.90;;;;;;5068899;28;20704;-64
2023/07/11 00:57:25;;;;;;;5.28;4.20;;;20.50;99.90;;;;;;5060292;28;20201;-64
2023/07/11 00:59:53;;;;;;;3.92;3.63;;;20.50;99.90;;;;;;5071691;28;20254;-64
2023/07/11 01:02:22;;;;;;;4.60;4.13;;;20.40;99.90;;;;;;5068030;28;20252;-64
2023/07/11 01:04:52;;;;;;;5.10;4.28;;;20.30;99.90;;;;;;5052413;28;20201;-65
2023/07/11 01:07:21;;;;;;;9.35;4.07;;;20.30;99.90;;;;;;5059734;28;20250;-64
2023/07/11 01:09:49;;;;;;;4.30;3.95;;;20.30;99.90;;;;;;5061409;28;20241;-64
2023/07/11 01:12:17;;;;;;;4.43;3.97;;;20.20;99.90;;;;;;5067205;28;20299;-64
2023/07/11 01:14:46;;;;;;;6.95;4.15;;;20.20;99.90;;;;;;5069543;28;20287;-64
2023/07/11 01:17:25;;;;;;;4.43;4.03;;;20.10;99.90;;;;;;5058691;28;20242;-65
2023/07/11 01:19:55;;;;;;;4.78;4.10;;;20.10;99.90;;;;;;5072265;28;20211;-64
2023/07/11 01:22:24;;;;;;;4.90;4.05;;;20.10;99.90;;;;;;5056444;28;20719;-65
2023/07/11 01:24:52;;;;;;;4.55;4.13;;;20.00;99.90;;;;;;5071825;28;20232;-65
2023/07/11 01:27:20;;;;;;;4.47;4.07;;;20.00;99.90;;;;;;5064974;28;20736;-64
2023/07/11 01:29:49;;;;;;;5.18;3.70;;;20.00;99.90;;;;;;5062139;28;20266;-64
2023/07/11 01:32:17;;;;;;;4.65;4.35;;;20.00;99.90;;;;;;5057186;28;20224;-64
2023/07/11 01:34:45;;;;;;;5.05;4.07;;;20.00;99.90;;;;;;5067648;28;20208;-64
2023/07/11 01:37:13;;;;;;;7.43;3.92;;;20.00;99.90;;;;;;5057929;28;20288;-64
2023/07/11 01:39:42;;;;;;;4.30;3.90;;;20.00;99.90;;;;;;5071980;28;20661;-64
2023/07/11 01:42:10;;;;;;;4.50;4.18;;;20.00;99.90;;;;;;5079507;22;20683;-61
2023/07/11 01:44:38;;;;;;;8.27;4.38;;;20.00;99.90;;;;;;5071164;28;20208;-60
2023/07/11 01:47:07;;;;;;;5.40;3.90;;;19.90;99.90;;;;;;5071607;28;20833;-60
2023/07/11 01:49:35;;;;;;;4.18;3.92;;;19.90;99.90;;;;;;5071625;28;20283;-62
2023/07/11 01:52:04;;;;;;;7.55;4.20;;;19.90;99.90;;;;;;5071639;28;20263;-61
2023/07/11 01:54:32;;;;;;;7.53;4.28;;;19.90;99.90;;;;;;5054800;28;20242;-61
2023/07/11 01:57:01;;;;;;;5.68;4.28;;;19.90;99.90;;;;;;5067112;28;20683;-61
2023/07/11 01:59:29;;;;;;;5.25;3.50;;;19.80;99.90;;;;;;5060045;28;20254;-61
2023/07/11 02:01:57;;;;;;;4.65;3.72;;;19.80;99.90;;;;;;5059282;28;20248;-61
2023/07/11 02:04:26;;;;;;;4.38;4.00;;;19.80;99.90;;;;;;5051449;28;20225;-61
2023/07/11 02:06:54;;;;;;;4.38;4.05;;;19.70;99.90;;;;;;5038296;28;20667;-60
2023/07/11 02:09:22;;;;;;;5.07;4.18;;;19.70;99.90;;;;;;5064029;28;20676;-61
2023/07/11 02:11:50;;;;;;;10.07;3.72;;;19.70;99.90;;;;;;5062516;28;20278;-61
2023/07/11 02:14:20;;;;;;;4.72;3.90;;;19.60;99.90;;;;;;5056244;28;20198;-61
2023/07/11 02:16:48;;;;;;;4.07;3.75;;;19.60;99.90;;;;;;5067645;28;20654;-61
2023/07/11 02:19:18;;;;;;;7.30;4.10;;;19.60;99.90;;;;;;5057849;28;20236;-61
2023/07/11 02:21:46;;;;;;;4.93;4.00;;;19.60;99.90;;;;;;5060360;28;20225;-61
2023/07/11 02:24:15;;;;;;;4.68;3.70;;;19.50;99.90;;;;;;5046270;28;20644;-62
2023/07/11 02:26:43;;;;;;;4.57;4.20;;;19.50;99.90;;;;;;5050721;28;20198;-61
2023/07/11 02:29:11;;;;;;;6.07;4.40;;;19.50;99.90;;;;;;5057146;28;20232;-61
2023/07/11 02:31:40;;;;;;;7.82;4.47;;;19.50;99.90;;;;;;5061308;28;20946;-61
2023/07/11 02:34:08;;;;;;;5.88;3.92;;;19.40;99.90;;;;;;5065165;28;20280;-61
2023/07/11 02:36:36;;;;;;;5.35;3.97;;;19.50;99.90;;;;;;5054340;28;20209;-61
2023/07/11 02:39:04;;;;;;;3.95;3.65;;;19.40;99.90;;;;;;5066347;28;20642;-61
2023/07/11 02:41:32;;;;;;;3.83;3.47;;;19.30;99.90;;;;;;5059705;28;20270;-61
2023/07/11 02:44:01;;;;;;;4.50;4.10;;;19.30;99.90;;;;;;5058339;28;20359;-61
2023/07/11 02:46:29;;;;;;;4.22;3.72;;;19.30;99.90;;;;;;5067158;28;20205;-62
2023/07/11 02:48:58;;;;;;;6.35;3.75;;;19.30;99.90;;;;;;5054802;28;20209;-61
2023/07/11 02:51:26;;;;;;;4.38;4.00;;;19.30;99.90;;;;;;5062957;28;20688;-61
2023/07/11 02:53:54;;;;;;;3.95;3.53;;;19.30;99.90;;;;;;5062782;28;20694;-61
2023/07/11 02:56:22;;;;;;;4.25;3.88;;;19.30;99.90;;;;;;5054987;28;20205;-61
2023/07/11 02:58:51;;;;;;;7.30;3.65;;;19.30;99.90;;;;;;5067348;28;20232;-60
2023/07/11 03:01:19;;;;;;;4.97;4.10;;;19.30;99.90;;;;;;5054886;28;20297;-61
2023/07/11 03:03:47;;;;;;;6.13;4.25;;;19.30;99.90;;;;;;5051375;28;20275;-61
2023/07/11 03:06:18;;;;;;;4.65;4.25;;;19.30;99.90;;;;;;5050742;28;20201;-61
2023/07/11 03:08:46;;;;;;;4.53;3.50;;;19.30;99.90;;;;;;5053230;28;20217;-61
2023/07/11 03:11:14;;;;;;;8.77;4.40;;;19.30;99.90;;;;;;5064482;28;20198;-60
2023/07/11 03:13:42;;;;;;;4.68;4.22;;;19.30;99.90;;;;;;5060781;28;20237;-62
2023/07/11 03:16:10;;;;;;;5.00;4.35;;;19.20;99.90;;;;;;5056311;28;20634;-60
2023/07/11 03:18:38;;;;;;;4.10;3.80;;;19.20;99.90;;;;;;5067430;28;20239;-61
2023/07/11 03:21:06;;;;;;;4.78;4.13;;;19.20;99.90;;;;;;5051176;28;20205;-61
2023/07/11 03:23:35;;;;;;;4.70;4.30;;;19.10;99.90;;;;;;5051952;28;20681;-61
2023/07/11 03:26:03;;;;;;;3.97;3.67;;;19.10;99.90;;;;;;5053960;28;20636;-61
2023/07/11 03:28:31;;;;;;;4.00;3.60;;;19.10;99.90;;;;;;5062106;28;20205;-62
2023/07/11 03:30:59;;;;;;;4.68;4.22;;;19.00;99.90;;;;;;5069861;28;20259;-61
2023/07/11 03:33:27;;;;;;;4.68;3.65;;;18.90;99.90;;;;;;5062352;28;20217;-61
2023/07/11 03:35:55;;;;;;;4.70;3.95;;;18.90;99.90;;;;;;5061806;28;20735;-61
2023/07/11 03:38:23;;;;;;;4.65;4.13;;;18.90;99.90;;;;;;5070232;28;20219;-60
2023/07/11 03:40:53;;;;;;;4.68;4.03;;;18.90;99.90;;;;;;5065205;28;20813;-61
2023/07/11 03:43:21;;;;;;;5.55;4.20;;;18.80;99.90;;;;;;5066470;28;20867;-60
2023/07/11 03:45:49;;;;;;;4.35;3.95;;;18.80;99.90;;;;;;5064648;28;20687;-61
2023/07/11 03:48:18;;;;;;;4.10;3.80;;;18.80;99.90;;;;;;5059084;28;20204;-61
2023/07/11 03:50:45;;;;;;;4.63;4.15;;;18.80;99.90;;;;;;5070290;28;20745;-62
2023/07/11 03:53:14;;;;;;;6.45;4.50;;;18.90;99.90;;;;;;5060002;28;20675;-61
2023/07/11 03:55:42;;;;;;;7.30;4.00;;;18.90;99.90;;;;;;5063331;28;20237;-61
2023/07/11 03:58:12;;;;;;;6.35;4.30;;;18.90;99.90;;;;;;5067820;28;20197;-61
2023/07/11 04:00:40;;;;;;;6.95;3.70;;;18.90;99.90;;;;;;5057115;28;20297;-61
2023/07/11 04:03:08;;;;;;;5.22;3.95;;;18.90;99.90;;;;;;5061106;28;20227;-61
2023/07/11 04:05:36;;;;;;;7.28;3.90;;;18.90;99.90;;;;;;5063911;28;20225;-61
2023/07/11 04:08:05;;;;;;;4.10;3.70;;;18.90;99.90;;;;;;5066536;28;20250;-60
2023/07/11 04:10:33;;;;;;;8.00;4.03;;;18.90;99.90;;;;;;5073414;28;20234;-61
2023/07/11 04:13:01;;;;;;;6.40;4.07;;;18.90;99.90;;;;;;5069084;28;20225;-61
2023/07/11 04:15:30;;;;;;;7.10;4.43;;;18.90;99.90;;;;;;5061226;28;20232;-60
2023/07/11 04:17:58;;;;;;;4.35;3.95;;;18.80;99.90;;;;;;5056471;28;20201;-59
2023/07/11 04:20:26;;;;;;;2.70;2.50;;;18.90;99.90;;;;;;5053645;28;20210;-55
2023/07/11 04:22:53;;;;;;;3.85;3.55;;;19.00;99.90;;;;;;5051891;28;20233;-55
2023/07/11 04:25:21;;;;;;;3.55;3.35;;;19.30;99.90;;;;;;5056162;28;20735;-56
2023/07/11 04:27:49;;;;;;;5.55;3.80;;;19.60;99.90;;;;;;5054564;28;20295;-57
2023/07/11 04:30:17;;;;;;;3.95;3.58;;;19.90;99.90;;;;;;5052610;28;20575;-57
2023/07/11 04:32:48;;;;;;;5.20;3.72;;;20.10;99.90;;;;;;5054392;28;20252;-58
2023/07/11 04:35:17;;;;;;;4.15;3.75;;;20.20;99.90;;;;;;5053398;28;20262;-55
2023/07/11 04:37:45;;;;;;;5.95;3.78;;;20.30;99.90;;;;;;5053254;28;20225;-56
2023/07/11 04:40:13;;;;;;;4.05;3.72;;;20.40;99.90;;;;;;5052723;28;20233;-56
2023/07/11 04:42:41;;;;;;;4.22;3.75;;;20.40;99.90;;;;;;5069076;28;20240;-56
2023/07/11 04:45:09;;;;;;;4.70;3.20;;;20.50;99.90;;;;;;5058019;28;20220;-57
2023/07/11 04:47:37;;;;;;;3.80;3.42;;;20.60;99.90;;;;;;5063704;28;20292;-57
2023/07/11 04:50:08;;;;;;;6.15;3.58;;;20.60;99.90;;;;;;5066129;28;20254;-56
2023/07/11 04:52:35;;;;;;;5.75;3.95;;;20.70;99.90;;;;;;5056061;28;20720;-57
2023/07/11 04:55:04;;;;;;;9.15;4.40;;;20.80;99.90;;;;;;5067441;28;20650;-57
2023/07/11 04:57:31;;;;;;;5.75;4.00;;;20.80;99.90;;;;;;5061299;28;20283;-58
2023/07/11 04:59:59;;;;;;;4.18;3.88;;;20.90;99.90;;;;;;5060028;28;20736;-56
2023/07/11 05:02:27;;;;;;;7.75;4.40;;;20.90;99.90;;;;;;5056327;28;20252;-55
2023/07/11 05:04:55;;;;;;;5.72;4.28;;;21.00;99.90;;;;;;5039604;28;20641;-56
2023/07/11 05:07:24;;;;;;;5.80;4.15;;;21.00;99.90;;;;;;5065162;28;20237;-56
2023/07/11 05:09:52;;;;;;;6.20;4.55;;;21.10;99.90;;;;;;5051408;28;20197;-56
2023/07/11 05:12:26;;;;;;;6.70;4.43;;;21.10;99.90;;;;;;5052675;28;20221;-56
2023/07/11 05:14:54;;;;;;;5.30;3.85;;;21.10;99.90;;;;;;5051217;28;20233;-57
2023/07/11 05:17:22;;;;;;;7.90;4.18;;;21.20;99.90;;;;;;5053013;28;20233;-57
2023/07/11 05:19:50;;;;;;;7.25;4.65;;;21.20;99.90;;;;;;5051268;28;20214;-58
2023/07/11 05:22:18;;;;;;;6.38;4.97;;;21.30;99.90;;;;;;5052464;28;20291;-56
2023/07/11 05:24:48;;;;;;;9.02;5.05;;;21.30;99.90;;;;;;5052392;28;20253;-57
2023/07/11 05:27:16;;;;;;;5.72;5.22;;;21.40;99.90;;;;;;5056152;28;20241;-56
2023/07/11 05:29:44;;;;;;;8.65;5.60;;;21.40;99.90;;;;;;5050027;28;20244;-56
2023/07/11 05:32:12;;;;;;;6.97;5.18;;;21.40;99.90;;;;;;5046597;28;20245;-56
2023/07/11 05:34:40;;;;;;;11.82;6.03;;;21.40;99.90;;;;;;5051759;28;20198;-55
2023/07/11 05:37:07;;;;;;;7.18;5.10;;;21.40;99.90;;;;;;5057425;28;20618;-57
2023/07/11 05:39:35;;;;;;;8.70;5.20;;;21.40;99.90;;;;;;5062394;28;20711;-56
2023/07/11 05:42:05;;;;;;;6.38;5.20;;;21.50;99.90;;;;;;5064048;28;20335;-56
2023/07/11 05:44:33;;;;;;;8.13;5.13;;;21.50;99.90;;;;;;5054992;28;20319;-58
2023/07/11 05:47:01;;;;;;;9.07;6.00;;;21.60;99.90;;;;;;5066536;28;20206;-58
2023/07/11 05:49:29;;;;;;;5.68;5.22;;;21.70;99.90;;;;;;5060346;28;20607;-55
2023/07/11 05:51:57;;;;;;;6.90;5.35;;;21.70;99.90;;;;;;5059355;28;20229;-57
2023/07/11 05:54:25;;;;;;;5.88;5.30;;;21.70;99.90;;;;;;5066892;28;20280;-60
2023/07/11 05:56:53;;;;;;;7.50;5.25;;;21.70;99.90;;;;;;5054656;28;20637;-60
2023/07/11 05:59:22;;;;;;;6.07;5.05;;;21.70;99.90;;;;;;5064524;28;20235;-60
2023/07/11 06:01:51;;;;;;;7.20;4.95;;;21.80;99.90;;;;;;5055532;28;20305;-60
2023/07/11 06:04:19;;;;;;;7.30;5.75;;;21.80;99.90;;;;;;5066523;28;20228;-59
2023/07/11 06:06:49;;;;;;;6.38;5.78;;;21.80;99.90;;;;;;5054597;28;20681;-58
2023/07/11 06:09:18;;;;;;;6.25;5.53;;;21.80;99.90;;;;;;5064708;28;20750;-66
2023/07/11 06:11:47;;;;;;;7.90;5.68;;;21.80;99.90;;;;;;5061723;28;20282;-66
2023/07/11 06:14:16;;;;;;;8.52;5.85;;;21.70;99.90;;;;;;5055406;28;20236;-66
2023/07/11 06:16:46;;;;;;;9.77;5.70;;;21.70;99.90;;;;;;5067204;28;20204;-65
2023/07/11 06:19:18;;;;;;;9.57;6.00;;;21.50;99.90;;;;;;5058161;28;20215;-65
2023/07/11 06:21:45;;;;;;;6.45;4.78;;;21.50;99.90;;;;;;5060987;28;20275;-65
2023/07/11 06:24:13;;;;;;;8.80;5.70;;;21.40;99.90;;;;;;5065998;28;20263;-64
2023/07/11 06:26:42;;;;;;;8.10;5.30;;;21.30;99.90;;;;;;5054360;28;20743;-64
2023/07/11 06:29:09;;;;;;;11.50;5.57;;;21.30;99.90;;;;;;5065966;28;20209;-65
2023/07/11 06:31:37;;;;;;;12.25;5.40;;;21.30;99.90;;;;;;5057550;28;20229;-65
2023/07/11 06:34:07;;;;;;;6.38;5.53;;;21.40;99.90;;;;;;5055370;28;20274;-65
2023/07/11 06:36:34;;;;;;;8.90;5.95;;;21.40;99.90;;;;;;5056026;28;20253;-65
2023/07/11 06:39:03;;;;;;;5.07;4.68;;;21.50;99.90;;;;;;5050960;28;20255;-65
2023/07/11 06:41:31;;;;;;;5.68;5.18;;;21.50;99.90;;;;;;5059645;28;20266;-65
2023/07/11 06:43:58;;;;;;;8.88;5.13;;;21.60;99.90;;;;;;5058789;28;20724;-65
2023/07/11 06:46:26;;;;;;;5.78;5.13;;;21.70;99.90;;;;;;5066944;28;20212;-65
2023/07/11 06:48:55;;;;;;;6.10;5.50;;;21.80;99.90;;;;;;5038568;28;20219;-65
2023/07/11 06:51:24;;;;;;;8.90;5.07;;;21.80;99.90;;;;;;5063912;28;20212;-65
2023/07/11 06:53:52;;;;;;;7.72;5.10;;;21.80;99.90;;;;;;5062644;28;20232;-65
2023/07/11 06:56:20;;;;;;;10.48;5.93;;;21.90;99.90;;;;;;5055639;28;20576;-65
2023/07/11 06:58:48;;;;;;;7.53;5.05;;;22.00;99.90;;;;;;5069524;28;20208;-67
2023/07/11 07:01:16;;;;;;;5.80;5.10;;;22.10;99.90;;;;;;5059198;28;20284;-67
2023/07/11 07:04:03;;;;;;;9.23;5.63;;;22.20;99.90;;;;;;5068127;28;20211;-65
2023/07/11 07:06:35;;;;;;;5.95;4.90;;;22.30;99.90;;;;;;5058146;28;20255;-66
2023/07/11 07:09:04;;;;;;;7.60;5.80;;;22.40;99.90;;;;;;5070077;28;20224;-64
2023/07/11 07:11:32;;;;;;;18.80;5.63;;;22.40;99.90;;;;;;5063251;28;20231;-65
2023/07/11 07:14:00;;;;;;;10.73;5.75;;;22.40;99.90;;;;;;5062120;28;20965;-65
2023/07/11 07:16:33;;;;;;;9.98;5.03;;;22.50;99.90;;;;;;5071113;28;20302;-65
2023/07/11 07:19:01;;;;;;;5.57;4.97;;;22.60;99.90;;;;;;5059284;28;20205;-65
2023/07/11 07:21:29;;;;;;;7.95;4.80;;;22.70;99.90;;;;;;5066354;28;20217;-65
2023/07/11 07:23:59;;;;;;;9.40;5.07;;;22.70;99.90;;;;;;5054523;28;20259;-65
2023/07/11 07:26:27;;;;;;;7.00;4.93;;;22.80;99.90;;;;;;5070797;28;20260;-65
2023/07/11 07:28:55;;;;;;;10.98;5.47;;;22.90;99.90;;;;;;5070975;28;20280;-65
2023/07/11 07:31:23;;;;;;;7.20;5.30;;;23.00;99.90;;;;;;5061812;28;20671;-65
2023/07/11 07:33:52;;;;;;;8.35;5.10;;;23.00;99.90;;;;;;5074393;28;20226;-64
2023/07/11 07:36:19;;;;;;;9.07;4.70;;;23.20;99.90;;;;;;5058662;28;20198;-66
2023/07/11 07:38:48;;;;;;;6.70;5.15;;;23.20;99.90;;;;;;5057054;28;20304;-65
2023/07/11 07:41:18;;;;;;;6.53;4.85;;;23.30;99.90;;;;;;5067570;28;20716;-65
2023/07/11 07:43:46;;;;;;;5.20;4.70;;;23.50;99.90;;;;;;5065314;28;20253;-65
2023/07/11 07:46:14;;;;;;;5.68;4.53;;;23.60;99.90;;;;;;5059131;28;20221;-56
2023/07/11 07:48:43;;;;;;;5.30;4.80;;;23.70;99.90;;;;;;5069647;28;20266;-57
2023/07/11 07:51:12;;;;;;;7.18;4.50;;;23.80;99.90;;;;;;5059694;28;20201;-57
2023/07/11 07:53:40;;;;;;;7.22;5.53;;;23.90;99.90;;;;;;5064070;28;20210;-55
2023/07/11 07:56:09;;;;;;;5.13;4.70;;;24.00;99.90;;;;;;5067251;28;20239;-56
2023/07/11 07:58:39;;;;;;;5.97;4.90;;;24.20;99.90;;;;;;5057277;28;20583;-55
2023/07/11 08:01:11;;;;;;;5.43;4.88;;;24.30;99.90;;;;;;5057956;28;20205;-58
2023/07/11 08:03:39;;;;;;;7.10;5.18;;;24.40;99.90;;;;;;5053681;28;20557;-56
2023/07/11 08:06:08;;;;;;;5.18;4.72;;;24.40;99.90;;;;;;5050403;28;20252;-56
2023/07/11 08:08:44;;;;;;;8.57;5.20;;;24.60;99.90;;;;;;5050168;28;20202;-58
2023/07/11 08:11:12;;;;;;;6.38;5.30;;;24.70;99.90;;;;;;5053401;28;20263;-56
2023/07/11 08:13:41;;;;;;;6.75;4.97;;;24.90;99.90;;;;;;5050809;28;20232;-57
2023/07/11 08:16:12;;;;;;;6.47;5.00;;;25.00;99.90;;;;;;5055122;28;20276;-56
2023/07/11 08:18:58;;;;;;;7.30;4.82;;;25.10;99.90;;;;;;5055351;28;20209;-57
2023/07/11 08:21:25;;;;;;;4.68;4.22;;;25.20;99.90;;;;;;5056437;28;20713;-56
2023/07/11 08:23:53;;;;;;;6.38;4.28;;;25.30;99.90;;;;;;5053757;28;20205;-56
2023/07/11 08:26:22;;;;;;;10.55;4.93;;;25.50;99.90;;;;;;5068399;28;20307;-63
2023/07/11 08:28:51;;;;;;;8.57;4.40;;;25.60;99.90;;;;;;5055738;28;20213;-64
2023/07/11 08:31:20;;;;;;;7.32;3.70;;;25.90;99.90;;;;;;5065426;28;20205;-64
2023/07/11 08:33:49;;;;;;;8.20;4.63;;;26.00;99.90;;;;;;5063840;28;20203;-65
2023/07/11 08:36:17;;;;;;;4.45;4.07;;;26.10;99.90;;;;;;5057667;28;20198;-65
2023/07/11 08:38:46;;;;;;;4.53;4.03;;;26.30;99.90;;;;;;5067490;28;20208;-66
2023/07/11 08:41:24;;;;;;;6.00;3.92;;;26.40;99.90;;;;;;5058564;28;20242;-65
2023/07/11 08:43:55;;;;;;;7.78;3.85;;;26.60;99.90;;;;;;5061509;28;20239;-65
2023/07/11 08:46:23;;;;;;;5.13;4.70;;;26.70;99.90;;;;;;5068411;28;20303;-67
2023/07/11 08:48:52;;;;;;;5.47;4.53;;;26.90;99.90;;;;;;5056338;28;20676;-66
2023/07/11 08:51:24;;;;;;;5.28;4.20;;;27.00;99.90;;;;;;5065402;28;20611;-66
2023/07/11 08:53:55;;;;;;;4.78;4.07;;;27.20;99.90;;;;;;5064552;28;20201;-67
2023/07/11 08:56:27;;;;;;;6.40;4.70;;;27.30;99.90;;;;;;5056770;28;20205;-66
2023/07/11 08:58:56;;;;;;;7.88;4.03;;;27.40;99.90;;;;;;5040079;28;20287;-65
2023/07/11 09:01:32;;;;;;;6.63;4.47;;;27.50;99.90;;;;;;5065061;28;20280;-66
2023/07/11 09:04:00;;;;;;;4.55;4.05;;;27.50;99.90;;;;;;5052432;28;20756;-66
2023/07/11 09:06:35;;;;;;;5.38;4.53;;;27.70;99.90;;;;;;5060643;28;20630;-65
2023/07/11 09:09:04;;;;;;;5.03;4.00;;;27.80;99.90;;;;;;5044816;28;20232;-65
2023/07/11 09:11:37;;;;;;;5.63;4.32;;;27.90;99.90;;;;;;5051056;28;20221;-66
2023/07/11 09:14:12;;;;;;;4.80;4.30;;;28.10;99.90;;;;;;5065501;28;20647;-65
2023/07/11 09:16:42;;;;;;;5.45;4.22;;;28.20;99.90;;;;;;5056467;28;20204;-65
2023/07/11 09:19:26;;;;;;;4.80;4.15;;;28.30;99.90;;;;;;5066602;28;20229;-68
2023/07/11 09:21:57;;;;;;;10.02;5.10;;;28.50;99.90;;;;;;5052837;28;20799;-64
2023/07/11 09:24:31;;;;;;;8.07;4.20;;;28.50;99.90;;;;;;5052428;28;20229;-64
2023/07/11 09:27:02;;;;;;;8.68;4.47;;;28.50;99.90;;;;;;5052131;28;20263;-65
2023/07/11 09:29:32;;;;;;;7.05;4.55;;;28.60;99.90;;;;;;5051794;28;20798;-66
2023/07/11 09:32:01;;;;;;;9.38;4.40;;;28.70;99.90;;;;;;5053128;28;20256;-66
2023/07/11 09:34:33;;;;;;;5.75;4.68;;;28.80;99.90;;;;;;5052435;28;20205;-65
2023/07/11 09:37:04;;;;;;;5.78;3.90;;;29.00;99.90;;;;;;5049316;28;20202;-66
2023/07/11 09:39:34;;;;;;;7.50;4.50;;;29.10;99.90;;;;;;5041866;28;20209;-65
2023/07/11 09:42:05;;;;;;;9.00;5.28;;;29.20;99.90;;;;;;5045521;28;20233;-66
2023/07/11 09:44:34;;;;;;;6.00;4.68;;;29.40;99.90;;;;;;5051601;28;20662;-66
2023/07/11 09:47:05;;;;;;;6.22;3.88;;;29.50;99.90;;;;;;5044196;28;20213;-66
2023/07/11 09:49:35;;;;;;;9.10;4.45;;;29.60;99.90;;;;;;5050413;28;20213;-69
2023/07/11 09:52:03;;;;;;;4.55;4.18;;;29.70;99.90;;;;;;5051245;28;20252;-67
2023/07/11 09:54:43;;;;;;;6.03;4.53;;;29.70;99.90;;;;;;5052046;28;20205;-66
2023/07/11 09:57:30;;;;;;;5.13;4.70;;;29.80;99.90;;;;;;5049366;28;20528;-65
2023/07/11 10:00:01;;;;;;;6.57;4.05;;;29.90;99.90;;;;;;5051230;28;20255;-65
2023/07/11 10:02:48;;;;;;;7.93;4.25;;;30.10;99.90;;;;;;5049978;28;20221;-64
2023/07/11 10:05:17;;;;;;;7.57;4.85;;;30.20;99.90;;;;;;5050709;28;20197;-64
2023/07/11 10:07:47;;;;;;;7.70;4.28;;;30.20;99.90;;;;;;5048968;28;20214;-64
2023/07/11 10:10:15;;;;;;;5.78;4.03;;;30.30;99.90;;;;;;5051123;28;20201;-65
2023/07/11 10:12:44;;;;;;;6.85;4.50;;;30.40;99.90;;;;;;5051651;28;20253;-65
2023/07/11 10:15:16;;;;;;;6.55;4.30;;;30.50;99.90;;;;;;5049520;28;20229;-66
2023/07/11 10:17:45;;;;;;;6.78;4.78;;;30.60;99.90;;;;;;5048630;28;20556;-66
2023/07/11 10:20:15;;;;;;;10.32;4.60;;;30.60;99.90;;;;;;5050414;28;20722;-65
2023/07/11 10:22:49;;;;;;;6.50;4.70;;;30.80;99.90;;;;;;5048761;28;20541;-66
2023/07/11 10:25:20;;;;;;;5.88;4.15;;;30.90;99.90;;;;;;5048440;28;20578;-66
2023/07/11 10:27:51;;;;;;;7.77;4.60;;;31.10;99.90;;;;;;5049293;28;20478;-67
2023/07/11 10:30:25;;;;;;;5.50;4.38;;;31.40;99.90;;;;;;5050920;28;20233;-66
2023/07/11 10:32:56;;;;;;;5.35;4.47;;;31.50;99.90;;;;;;5051240;28;20256;-65
2023/07/11 10:35:35;;;;;;;6.53;4.60;;;31.60;99.90;;;;;;5054706;28;20201;-66
2023/07/11 10:38:04;;;;;;;4.93;4.20;;;31.70;99.90;;;;;;5054641;28;20284;-66
2023/07/11 10:40:34;;;;;;;8.20;3.92;;;31.70;99.90;;;;;;5057401;28;20631;-66
2023/07/11 10:43:04;;;;;;;10.20;4.75;;;31.90;99.90;;;;;;5049669;28;20328;-65
2023/07/11 10:45:38;;;;;;;4.88;4.18;;;32.00;99.90;;;;;;5054822;28;20560;-65
2023/07/11 10:48:12;;;;;;;6.38;4.60;;;32.20;99.90;;;;;;5054903;28;20267;-66
2023/07/11 10:50:44;;;;;;;13.52;4.78;;;32.30;99.70;;;;;;5049161;28;20696;-66
2023/07/11 10:53:16;;;;;;;5.38;4.25;;;32.30;99.90;;;;;;5053896;28;20244;-66
2023/07/11 10:55:47;;;;;;;4.80;4.38;;;32.40;99.90;;;;;;5050515;28;20331;-66
2023/07/11 10:58:15;;;;;;;5.60;4.50;;;32.60;99.90;;;;;;5053553;28;20197;-65
2023/07/11 11:00:49;;;;;;;6.05;4.50;;;32.80;99.90;;;;;;5052406;28;20630;-65
2023/07/11 11:03:35;;;;;;;6.72;4.40;;;33.00;99.90;;;;;;5051388;28;20665;-66
2023/07/11 11:06:13;;;;;;;7.38;4.65;;;33.10;99.90;;;;;;5045967;28;20205;-67
2023/07/11 11:08:42;;;;;;;8.43;4.15;;;33.20;99.70;;;;;;5050772;28;20261;-67
2023/07/11 11:11:26;;;;;;;8.80;4.50;;;33.30;99.70;;;;;;5052408;28;20271;-65
2023/07/11 11:13:59;;;;;;;5.75;4.78;;;33.40;99.70;;;;;;5053050;28;20341;-66
2023/07/11 11:16:31;;;;;;;6.72;5.05;;;33.60;99.70;;;;;;5053419;28;20681;-66
2023/07/11 11:19:05;;;;;;;5.05;4.47;;;33.60;99.90;;;;;;5049093;28;20665;-66
2023/07/11 11:21:36;;;;;;;11.05;5.15;;;33.80;99.70;;;;;;5050895;28;20235;-65
2023/07/11 11:24:31;;;;;;;7.97;4.72;;;33.80;99.70;;;;;;5053487;28;20208;-65
2023/07/11 11:27:01;;;;;;;5.40;5.00;;;34.00;99.20;;;;;;5041755;28;20207;-65
2023/07/11 11:29:37;;;;;;;6.13;5.40;;;34.30;99.20;;;;;;5065710;28;20604;-65
2023/07/11 11:32:13;;;;;;;6.90;5.05;;;34.50;99.20;;;;;;5067043;28;20263;-66
2023/07/11 11:34:48;;;;;;;9.38;5.55;;;34.80;98.30;;;;;;5072153;28;20632;-67
2023/07/11 11:37:29;;;;;;;10.82;5.90;;;35.00;97.90;;;;;;5062012;28;20228;-65
2023/07/11 11:40:00;;;;;;;5.88;5.38;;;35.20;97.50;;;;;;5061506;28;20290;-65
2023/07/11 11:42:30;;;;;;;13.88;6.10;;;35.30;96.10;;;;;;5069980;28;20720;-66
2023/07/11 11:44:59;;;;;;;10.13;6.75;;;35.40;96.10;;;;;;5056653;28;20614;-65
2023/07/11 11:47:48;;;;;;;11.45;6.07;;;35.50;95.10;;;;;;5062615;28;20228;-64
2023/07/11 11:50:20;;;;;;;8.73;5.78;;;35.70;94.40;;;;;;5068156;28;20247;-65
2023/07/11 11:52:55;;;;;;;7.78;5.53;;;35.80;94.10;;;;;;5068878;28;20225;-65
2023/07/11 11:55:33;;;;;;;6.35;5.47;;;35.70;93.60;;;;;;5059779;28;20200;-65
2023/07/11 11:58:01;;;;;;;6.68;5.97;;;35.80;94.60;;;;;;5060713;28;20270;-65
2023/07/11 12:00:38;;;;;;;6.28;5.68;;;35.90;95.50;;;;;;5069871;28;20287;-66
2023/07/11 12:03:19;;;;;;;8.00;5.88;;;36.30;93.40;;;;;;5053460;28;20764;-66
2023/07/11 12:05:51;;;;;;;9.98;6.25;;;36.60;94.00;;;;;;5064156;28;20239;-66
2023/07/11 12:08:41;;;;;;;9.32;6.07;;;36.80;92.40;;;;;;5058095;28;20225;-66
2023/07/11 12:11:19;;;;;;;8.57;5.97;;;37.00;92.40;;;;;;5042545;28;20204;-66
2023/07/11 12:14:19;;;;;;;6.88;6.03;;;37.20;92.10;;;;;;5061637;28;20293;-66
2023/07/11 12:16:49;;;;;;;9.00;5.88;;;37.20;90.70;;;;;;5069306;28;20342;-67
2023/07/11 12:19:35;;;;;;;11.00;5.93;;;37.40;90.10;;;;;;5059066;28;20207;-66
2023/07/11 12:22:05;;;;;;;7.97;6.13;;;37.40;89.80;;;;;;5060448;28;20233;-66
2023/07/11 12:24:41;;;;;;;7.50;6.22;;;37.50;88.50;;;;;;5069588;28;20208;-66
2023/07/11 12:27:27;;;;;;;10.23;5.65;;;37.40;87.20;;;;;;5059126;28;20200;-66
2023/07/11 12:29:54;;;;;;;12.98;6.78;;;37.50;86.80;;;;;;5060997;28;20229;-66
2023/07/11 12:32:40;;;;;;;9.20;6.75;;;37.70;87.40;;;;;;5068453;28;20256;-66
2023/07/11 12:35:18;;;;;;;8.98;5.68;;;37.90;88.40;;;;;;5044636;28;20197;-66
2023/07/11 12:38:00;;;;;;;10.75;7.72;;;38.10;85.90;;;;;;5063651;28;20228;-66
2023/07/11 12:40:30;;;;;;;10.00;7.57;;;38.20;85.30;;;;;;5056357;28;20201;-66
2023/07/11 12:42:59;;;;;;;10.10;7.32;;;38.30;89.20;;;;;;5040983;28;20228;-66
2023/07/11 12:45:28;;;;;;;10.73;6.95;;;38.50;86.50;;;;;;5064579;28;20267;-66
2023/07/11 12:48:01;;;;;;;8.68;6.80;;;38.60;85.70;;;;;;5064905;28;20201;-66
2023/07/11 12:50:37;;;;;;;9.52;7.43;;;38.60;83.70;;;;;;5056299;28;20203;-66
2023/07/11 12:53:05;;;;;;;7.45;6.43;;;38.60;84.00;;;;;;5067489;28;20278;-66
2023/07/11 12:55:32;;;;;;;9.82;6.28;;;38.60;84.50;;;;;;5060323;28;20711;-65
2023/07/11 12:58:00;;;;;;;11.02;6.20;;;38.60;85.00;;;;;;5059844;28;20240;-65
2023/07/11 13:00:29;;;;;;;11.75;6.10;;;38.80;84.30;;;;;;5069180;28;20622;-65